createdAt,value
2018-04-13T00:00:27.478Z,61.23
2018-04-13T00:02:54.919Z,65.73
2018-04-13T00:05:22.383Z,62.30
2018-04-13T00:07:49.838Z,61.33
2018-04-13T00:10:17.267Z,62.57
2018-04-13T00:12:44.769Z,60.33
2018-04-13T00:15:12.210Z,61.03
2018-04-13T00:17:39.647Z,67.43
2018-04-13T00:20:07.072Z,68.20
2018-04-13T00:22:35.312Z,63.30
2018-04-13T00:25:02.753Z,58.67
2018-04-13T00:27:30.211Z,56.87
2018-04-13T00:29:57.646Z,56.87
2018-04-13T00:32:25.071Z,59.10
2018-04-13T00:34:53.307Z,58.93
2018-04-13T00:37:20.743Z,62.00
2018-04-13T00:39:48.225Z,57.17
2018-04-13T00:42:15.661Z,62.57
2018-04-13T00:44:43.140Z,62.67
2018-04-13T00:47:10.570Z,57.60
2018-04-13T00:49:38.003Z,57.53
2018-04-13T00:52:06.208Z,55.47
2018-04-13T00:54:33.684Z,57.03
2018-04-13T00:57:01.194Z,55.77
2018-04-13T00:59:28.610Z,57.23
2018-04-13T01:01:56.044Z,55.43
2018-04-13T01:04:23.515Z,51.20
2018-04-13T01:06:50.972Z,59.47
2018-04-13T01:09:18.431Z,56.33
2018-04-13T01:11:45.855Z,56.17
2018-04-13T01:14:13.315Z,57.77
2018-04-13T01:16:41.515Z,56.67
2018-04-13T01:19:08.939Z,53.43
2018-04-13T01:21:36.376Z,57.80
2018-04-13T01:24:04.589Z,54.37
2018-04-13T01:26:32.010Z,53.80
2018-04-13T01:29:00.233Z,54.07
2018-04-13T01:31:27.684Z,53.50
2018-04-13T01:33:55.111Z,56.33
2018-04-13T01:36:22.540Z,56.20
2018-04-13T01:38:49.974Z,54.57
2018-04-13T01:41:17.533Z,51.83
2018-04-13T01:43:44.960Z,56.40
2018-04-13T01:46:12.393Z,50.83
2018-04-13T01:48:40.591Z,54.47
2018-04-13T01:51:08.014Z,49.87
2018-04-13T01:53:36.239Z,48.27
2018-04-13T01:56:03.686Z,46.27
2018-04-13T01:58:31.105Z,42.20
2018-04-13T02:00:59.340Z,35.73
2018-04-13T02:03:26.767Z,32.63
2018-04-13T02:05:54.248Z,28.77
2018-04-13T02:08:21.679Z,23.50
2018-04-13T02:10:49.117Z,21.20
2018-04-13T02:13:17.313Z,23.37
2018-04-13T02:15:44.739Z,22.73
2018-04-13T02:18:12.969Z,26.03
2018-04-13T02:20:40.396Z,27.40
2018-04-13T02:23:07.838Z,27.87
2018-04-13T02:25:36.158Z,31.23
2018-04-13T02:28:03.647Z,29.80
2018-04-13T02:30:31.175Z,28.67
2018-04-13T02:32:58.613Z,27.57
2018-04-13T02:35:26.043Z,31.70
2018-04-13T02:37:54.235Z,26.20
2018-04-13T02:40:21.683Z,27.70
2018-04-13T02:42:49.124Z,27.17
2018-04-13T02:45:17.350Z,30.50
2018-04-13T02:47:44.776Z,37.77
2018-04-13T02:50:12.212Z,42.60
2018-04-13T02:52:40.411Z,57.20
2018-04-13T02:55:07.887Z,52.63
2018-04-13T02:57:35.318Z,83.83
2018-04-13T03:00:02.763Z,262.60
2018-04-13T03:02:30.976Z,80.87
2018-04-13T03:04:58.411Z,55.17
2018-04-13T03:07:25.853Z,47.00
2018-04-13T03:09:54.051Z,52.87
2018-04-13T03:12:21.503Z,50.37
2018-04-13T03:14:48.975Z,47.00
2018-04-13T03:17:16.414Z,40.73
2018-04-13T03:19:43.930Z,54.87
2018-04-13T03:22:12.351Z,45.30
2018-04-13T03:24:40.525Z,42.47
2018-04-13T03:27:07.951Z,46.30
2018-04-13T03:29:35.382Z,42.10
2018-04-13T03:32:02.819Z,39.87
2018-04-13T03:34:30.276Z,45.40
2018-04-13T03:36:57.711Z,35.43
2018-04-13T03:39:25.158Z,37.33
2018-04-13T03:41:53.337Z,44.93
2018-04-13T03:44:20.782Z,36.17
2018-04-13T03:46:48.981Z,36.47
2018-04-13T03:49:16.465Z,40.27
2018-04-13T03:51:43.946Z,67.67
2018-04-13T03:54:11.372Z,95.60
2018-04-13T03:56:38.822Z,61.13
2018-04-13T03:59:06.293Z,75.83
2018-04-13T04:01:33.715Z,115.67
2018-04-13T04:04:01.199Z,162.57
2018-04-13T04:06:28.628Z,184.67
2018-04-13T04:08:56.050Z,91.37
2018-04-13T04:11:24.282Z,85.17
2018-04-13T04:13:51.718Z,190.53
2018-04-13T04:16:19.206Z,233.80
2018-04-13T04:18:46.661Z,330.27
2018-04-13T04:21:25.996Z,229.40
2018-04-13T04:24:05.419Z,268.47
2018-04-13T04:26:50.855Z,128.60
2018-04-13T04:29:18.299Z,107.43
2018-04-13T04:31:45.727Z,83.33
2018-04-13T04:34:13.150Z,55.27
2018-04-13T04:36:40.583Z,44.40
2018-04-13T04:39:08.784Z,43.10
2018-04-13T04:41:36.267Z,43.37
2018-04-13T04:44:03.822Z,45.83
2018-04-13T04:46:31.232Z,40.27
2018-04-13T04:48:59.430Z,41.30
2018-04-13T04:51:26.859Z,40.97
2018-04-13T04:53:54.311Z,46.53
2018-04-13T04:56:21.767Z,50.57
2018-04-13T04:58:49.209Z,43.47
2018-04-13T05:01:16.652Z,51.53
2018-04-13T05:03:44.089Z,48.33
2018-04-13T05:06:11.528Z,51.77
2018-04-13T05:08:39.735Z,42.10
2018-04-13T05:11:07.166Z,45.77
2018-04-13T05:13:34.657Z,42.63
2018-04-13T05:16:02.082Z,48.87
2018-04-13T05:18:29.571Z,40.10
2018-04-13T05:20:57.011Z,41.43
2018-04-13T05:23:24.493Z,41.30
2018-04-13T05:25:51.946Z,44.90
2018-04-13T05:28:19.366Z,40.70
2018-04-13T05:30:46.868Z,38.73
2018-04-13T05:33:14.288Z,46.67
2018-04-13T05:35:41.732Z,43.30
2018-04-13T05:38:09.239Z,43.03
2018-04-13T05:40:36.680Z,43.67
2018-04-13T05:43:04.109Z,44.93
2018-04-13T05:45:31.553Z,42.03
2018-04-13T05:47:59.743Z,45.30
2018-04-13T05:50:27.174Z,38.70
2018-04-13T05:52:55.399Z,39.93
2018-04-13T05:55:22.835Z,40.37
2018-04-13T05:57:50.319Z,39.27
2018-04-13T06:00:17.779Z,38.30
2018-04-13T06:02:45.212Z,37.00
2018-04-13T06:05:12.642Z,41.17
2018-04-13T06:07:40.969Z,39.13
2018-04-13T06:10:08.425Z,41.07
2018-04-13T06:12:35.875Z,42.00
2018-04-13T06:15:03.341Z,43.40
2018-04-13T06:17:30.779Z,44.13
2018-04-13T06:19:58.250Z,39.07
2018-04-13T06:22:25.683Z,38.73
2018-04-13T06:24:53.163Z,37.13
2018-04-13T06:27:20.627Z,38.43
2018-04-13T06:29:48.075Z,31.17
2018-04-13T06:32:15.518Z,39.17
2018-04-13T06:34:42.942Z,45.50
2018-04-13T06:37:11.207Z,46.17
2018-04-13T06:39:38.660Z,41.90
2018-04-13T06:42:06.915Z,43.27
2018-04-13T06:44:34.355Z,46.20
2018-04-13T06:47:01.819Z,47.37
2018-04-13T06:49:29.274Z,46.00
2018-04-13T06:51:56.707Z,48.43
2018-04-13T06:54:24.194Z,51.93
2018-04-13T06:56:51.693Z,52.47
2018-04-13T06:59:19.910Z,51.67
2018-04-13T07:01:47.326Z,49.87
2018-04-13T07:04:15.545Z,42.87
2018-04-13T07:06:42.974Z,46.73
2018-04-13T07:09:10.419Z,44.47
2018-04-13T07:11:38.646Z,44.97
2018-04-13T07:14:06.075Z,39.87
2018-04-13T07:16:33.551Z,39.60
2018-04-13T07:19:00.975Z,39.03
2018-04-13T07:21:28.466Z,39.37
2018-04-13T07:23:55.926Z,41.37
2018-04-13T07:26:23.355Z,44.80
2018-04-13T07:28:50.830Z,41.27
2018-04-13T07:31:18.304Z,39.83
2018-04-13T07:33:45.766Z,45.90
2018-04-13T07:36:13.214Z,39.57
2018-04-13T07:38:40.674Z,39.73
2018-04-13T07:41:08.127Z,38.17
2018-04-13T07:43:35.572Z,41.77
2018-04-13T07:46:03.035Z,40.43
2018-04-13T07:48:30.483Z,43.17
2018-04-13T07:50:57.940Z,41.00
2018-04-13T07:53:25.373Z,49.07
2018-04-13T07:55:52.861Z,47.10
2018-04-13T07:58:20.307Z,43.87
2018-04-13T08:00:47.765Z,47.00
2018-04-13T08:03:15.207Z,47.53
2018-04-13T08:05:42.684Z,44.40
2018-04-13T08:08:10.409Z,46.93
2018-04-13T08:10:37.620Z,41.13
2018-04-13T08:13:05.061Z,42.00
2018-04-13T08:15:32.498Z,40.10
2018-04-13T08:18:00.028Z,48.27
2018-04-13T08:20:27.414Z,49.57
2018-04-13T08:22:54.855Z,46.83
2018-04-13T08:25:22.292Z,48.97
2018-04-13T08:27:50.519Z,51.27
2018-04-13T08:30:17.991Z,49.17
2018-04-13T08:32:45.503Z,47.27
2018-04-13T08:35:12.927Z,47.10
2018-04-13T08:37:41.150Z,39.93
2018-04-13T08:40:08.625Z,41.13
2018-04-13T08:42:36.065Z,48.33
2018-04-13T08:45:03.603Z,37.80
2018-04-13T08:47:31.096Z,37.53
2018-04-13T08:49:58.544Z,41.57
2018-04-13T08:52:26.011Z,36.07
2018-04-13T08:54:53.452Z,37.47
2018-04-13T08:57:20.917Z,34.23
2018-04-13T08:59:48.358Z,35.57
2018-04-13T09:02:15.799Z,32.07
2018-04-13T09:04:44.018Z,34.23
2018-04-13T09:07:11.472Z,32.20
2018-04-13T09:09:38.911Z,32.73
2018-04-13T09:12:06.391Z,30.43
2018-04-13T09:14:39.942Z,34.20
2018-04-13T09:17:07.452Z,39.87
2018-04-13T09:19:34.875Z,31.83
2018-04-13T09:22:02.362Z,32.87
2018-04-13T09:24:29.795Z,33.97
2018-04-13T09:26:57.251Z,31.73
2018-04-13T09:29:24.675Z,33.63
2018-04-13T09:31:52.912Z,27.47
2018-04-13T09:34:20.371Z,31.13
2018-04-13T09:36:47.818Z,29.90
2018-04-13T09:39:15.270Z,27.23
2018-04-13T09:41:42.722Z,32.00
2018-04-13T09:44:10.203Z,25.50
2018-04-13T09:46:37.659Z,30.30
2018-04-13T09:49:05.117Z,26.23
2018-04-13T09:51:32.547Z,28.70
2018-04-13T09:54:00.031Z,23.33
2018-04-13T09:56:27.487Z,20.83
2018-04-13T09:58:54.927Z,26.20
2018-04-13T10:01:22.367Z,24.37
2018-04-13T10:03:49.824Z,25.80
2018-04-13T10:06:17.274Z,22.83
2018-04-13T10:08:45.487Z,21.43
2018-04-13T10:11:12.948Z,18.97
2018-04-13T10:13:41.243Z,17.50
2018-04-13T10:16:08.679Z,18.30
2018-04-13T10:18:37.004Z,17.00
2018-04-13T10:21:05.223Z,17.87
2018-04-13T10:23:32.663Z,18.67
2018-04-13T10:26:00.122Z,19.57
2018-04-13T10:28:27.560Z,21.03
2018-04-13T10:30:55.767Z,23.50
2018-04-13T10:33:23.267Z,19.63
2018-04-13T10:35:50.683Z,22.70
2018-04-13T10:38:18.145Z,19.43
2018-04-13T10:40:45.579Z,20.13
2018-04-13T10:43:13.022Z,20.30
2018-04-13T10:45:41.245Z,20.57
2018-04-13T10:48:08.673Z,20.87
2018-04-13T10:50:36.158Z,19.37
2018-04-13T10:53:03.652Z,21.57
2018-04-13T10:55:31.860Z,23.27
2018-04-13T10:57:59.341Z,19.47
2018-04-13T11:00:26.768Z,21.73
2018-04-13T11:02:54.211Z,21.03
2018-04-13T11:05:22.413Z,21.00
2018-04-13T11:07:49.863Z,22.17
2018-04-13T11:10:17.346Z,22.80
2018-04-13T11:12:45.514Z,20.83
2018-04-13T11:15:12.952Z,20.57
2018-04-13T11:17:40.431Z,19.67
2018-04-13T11:20:07.886Z,22.83
2018-04-13T11:22:35.320Z,23.67
2018-04-13T11:25:02.799Z,22.33
2018-04-13T11:27:30.232Z,23.17
2018-04-13T11:29:57.727Z,23.23
2018-04-13T11:32:25.186Z,25.03
2018-04-13T11:34:52.631Z,24.70
2018-04-13T11:37:20.077Z,25.07
2018-04-13T11:39:47.515Z,24.93
2018-04-13T11:42:14.947Z,23.90
2018-04-13T11:44:43.204Z,26.97
2018-04-13T11:47:10.618Z,25.53
2018-04-13T11:49:38.085Z,29.50
2018-04-13T11:52:05.503Z,24.77
2018-04-13T11:54:33.701Z,25.87
2018-04-13T11:57:01.140Z,29.37
2018-04-13T11:59:29.367Z,26.77
2018-04-13T12:01:56.799Z,26.90
2018-04-13T12:04:24.247Z,29.97
2018-04-13T12:06:51.716Z,27.40
2018-04-13T12:09:19.178Z,30.70
2018-04-13T12:11:46.615Z,34.83
2018-04-13T12:14:14.121Z,29.67
2018-04-13T12:16:41.559Z,32.47
2018-04-13T12:19:09.011Z,31.90
2018-04-13T12:21:36.468Z,31.90
2018-04-13T12:24:03.947Z,34.03
2018-04-13T12:26:31.379Z,35.03
2018-04-13T12:28:58.839Z,36.33
2018-04-13T12:31:26.303Z,34.80
2018-04-13T12:33:53.745Z,35.63
2018-04-13T12:36:21.216Z,35.80
2018-04-13T12:38:48.671Z,32.57
2018-04-13T12:41:16.126Z,35.00
2018-04-13T12:43:43.694Z,37.23
2018-04-13T12:46:11.124Z,32.70
2018-04-13T12:48:38.587Z,36.37
2018-04-13T12:51:06.064Z,34.87
2018-04-13T12:53:33.495Z,33.53
2018-04-13T12:56:00.970Z,35.97
2018-04-13T12:58:28.531Z,35.73
2018-04-13T13:00:55.970Z,37.83
2018-04-13T13:03:23.398Z,34.53
2018-04-13T13:05:51.604Z,39.07
2018-04-13T13:08:19.087Z,39.27
2018-04-13T13:10:46.526Z,35.53
2018-04-13T13:13:13.983Z,38.93
2018-04-13T13:15:41.468Z,38.33
2018-04-13T13:18:08.855Z,37.13
2018-04-13T13:20:37.082Z,34.27
2018-04-13T13:23:04.551Z,34.13
2018-04-13T13:25:31.988Z,35.33
2018-04-13T13:27:59.455Z,34.93
2018-04-13T13:30:26.939Z,34.43
2018-04-13T13:32:54.483Z,37.73
2018-04-13T13:35:21.985Z,35.00
2018-04-13T13:37:50.211Z,37.47
2018-04-13T13:40:17.671Z,37.17
2018-04-13T13:42:45.115Z,33.63
2018-04-13T13:45:12.571Z,36.43
2018-04-13T13:47:40.062Z,37.20
2018-04-13T13:50:07.585Z,33.27
2018-04-13T13:52:35.055Z,34.33
2018-04-13T13:55:02.524Z,34.00
2018-04-13T13:57:29.972Z,34.50
2018-04-13T13:59:57.435Z,34.73
2018-04-13T14:02:24.880Z,35.83
2018-04-13T14:04:52.335Z,37.67
2018-04-13T14:07:19.774Z,30.00
2018-04-13T14:09:47.240Z,32.70
2018-04-13T14:12:14.699Z,36.73
2018-04-13T14:14:42.156Z,37.50
2018-04-13T14:17:09.585Z,35.33
2018-04-13T14:19:37.027Z,36.27
2018-04-13T14:22:05.355Z,36.17
2018-04-13T14:24:32.844Z,35.50
2018-04-13T14:27:00.280Z,36.83
2018-04-13T14:29:27.719Z,39.17
2018-04-13T14:31:55.165Z,34.67
2018-04-13T14:34:22.621Z,34.73
2018-04-13T14:36:50.100Z,38.70
2018-04-13T14:39:17.569Z,37.43
2018-04-13T14:41:45.112Z,39.00
2018-04-13T14:44:12.571Z,43.47
2018-04-13T14:46:40.031Z,41.27
2018-04-13T14:49:07.571Z,39.97
2018-04-13T14:51:35.029Z,44.60
2018-04-13T14:54:02.442Z,44.43
2018-04-13T14:56:30.646Z,43.40
2018-04-13T14:58:58.139Z,46.67
2018-04-13T15:01:25.584Z,45.87
2018-04-13T15:03:53.036Z,42.83
2018-04-13T15:06:20.472Z,46.80
2018-04-13T15:08:48.719Z,49.80
2018-04-13T15:11:16.946Z,49.80
2018-04-13T15:13:44.433Z,50.10
2018-04-13T15:16:11.857Z,46.80
2018-04-13T15:18:39.335Z,41.30
2018-04-13T15:21:06.763Z,44.90
2018-04-13T15:23:34.323Z,45.07
2018-04-13T15:26:01.740Z,44.80
2018-04-13T15:28:29.964Z,45.23
2018-04-13T15:30:57.395Z,47.80
2018-04-13T15:33:24.901Z,52.43
2018-04-13T15:35:52.435Z,50.27
2018-04-13T15:38:19.918Z,52.95
2018-04-13T15:40:47.452Z,47.60
2018-04-13T15:43:14.903Z,47.30
2018-04-13T15:45:42.389Z,51.27
2018-04-13T15:48:09.838Z,48.63
2018-04-13T15:50:37.282Z,55.43
2018-04-13T15:53:04.749Z,52.97
2018-04-13T15:55:32.210Z,50.50
2018-04-13T15:57:59.659Z,55.83
2018-04-13T16:00:27.121Z,48.87
2018-04-13T16:02:54.560Z,52.57
2018-04-13T16:05:22.198Z,56.00
2018-04-13T16:07:50.452Z,53.47
2018-04-13T16:10:18.684Z,55.80
2018-04-13T16:12:46.127Z,56.00
2018-04-13T16:15:13.601Z,51.53
2018-04-13T16:17:41.097Z,63.00
2018-04-13T16:20:08.616Z,55.63
2018-04-13T16:22:36.061Z,65.03
2018-04-13T16:25:03.560Z,69.03
2018-04-13T16:27:30.995Z,71.03
2018-04-13T16:29:58.435Z,62.60
2018-04-13T16:32:25.911Z,65.53
2018-04-13T16:34:53.363Z,63.23
2018-04-13T16:37:21.704Z,61.47
2018-04-13T16:39:49.147Z,63.57
2018-04-13T16:42:17.359Z,66.90
2018-04-13T16:44:44.799Z,65.30
2018-04-13T16:47:12.241Z,67.67
2018-04-13T16:49:40.465Z,66.73
2018-04-13T16:52:07.918Z,58.33
2018-04-13T16:54:35.367Z,60.23
2018-04-13T16:57:02.834Z,59.40
2018-04-13T16:59:30.291Z,58.50
2018-04-13T17:01:57.780Z,58.53
2018-04-13T17:04:25.250Z,57.97
2018-04-13T17:06:53.491Z,54.63
2018-04-13T17:09:20.975Z,56.67
2018-04-13T17:11:48.407Z,53.80
2018-04-13T17:14:15.882Z,50.63
2018-04-13T17:16:43.296Z,51.37
2018-04-13T17:19:10.760Z,47.50
2018-04-13T17:21:38.303Z,50.80
2018-04-13T17:24:05.755Z,47.50
2018-04-13T17:26:33.271Z,53.73
2018-04-13T17:29:01.539Z,50.93
2018-04-13T17:31:28.983Z,49.50
2018-04-13T17:33:56.420Z,55.70
2018-04-13T17:36:23.868Z,53.50
2018-04-13T17:38:51.347Z,56.37
2018-04-13T17:41:18.819Z,58.37
2018-04-13T17:43:46.372Z,54.97
2018-04-13T17:46:13.802Z,58.13
2018-04-13T17:48:41.295Z,53.40
2018-04-13T17:51:08.727Z,61.30
2018-04-13T17:53:36.163Z,59.30
2018-04-13T17:56:03.719Z,58.97
2018-04-13T17:58:31.151Z,59.43
2018-04-13T18:00:59.388Z,55.97
2018-04-13T18:03:26.836Z,56.97
2018-04-13T18:05:54.271Z,55.60
2018-04-13T18:08:21.722Z,56.80
2018-04-13T18:10:49.223Z,56.43
2018-04-13T18:13:16.672Z,61.03
2018-04-13T18:15:44.109Z,54.83
2018-04-13T18:18:11.559Z,57.60
2018-04-13T18:20:39.016Z,53.33
2018-04-13T18:23:06.459Z,55.73
2018-04-13T18:25:34.655Z,56.57
2018-04-13T18:28:02.104Z,59.37
2018-04-13T18:30:29.611Z,56.23
2018-04-13T18:32:57.118Z,61.00
2018-04-13T18:35:25.300Z,62.00
2018-04-13T18:37:52.788Z,54.90
2018-04-13T18:40:20.222Z,64.60
2018-04-13T18:42:47.712Z,59.13
2018-04-13T18:45:15.164Z,61.07
2018-04-13T18:47:42.600Z,58.80
2018-04-13T18:50:10.045Z,59.03
2018-04-13T18:52:37.541Z,65.10
2018-04-13T18:55:04.983Z,58.70
2018-04-13T18:57:32.527Z,61.07
2018-04-13T18:59:59.997Z,59.93
2018-04-13T19:02:27.541Z,61.57
2018-04-13T19:04:54.978Z,62.37
2018-04-13T19:07:22.417Z,60.93
2018-04-13T19:09:50.630Z,60.97
2018-04-13T19:12:18.091Z,58.20
2018-04-13T19:14:45.569Z,79.57
2018-04-13T19:17:18.915Z,62.47
2018-04-13T19:19:46.355Z,64.67
2018-04-13T19:22:14.560Z,60.70
2018-04-13T19:24:41.993Z,60.97
2018-04-13T19:27:10.211Z,67.37
2018-04-13T19:29:37.663Z,64.77
2018-04-13T19:32:05.113Z,58.07
2018-04-13T19:34:32.531Z,63.97
2018-04-13T19:37:00.735Z,70.47
2018-04-13T19:39:28.179Z,65.47
2018-04-13T19:41:56.406Z,68.85
2018-04-13T19:44:23.823Z,66.40
2018-04-13T19:46:51.275Z,70.60
2018-04-13T19:49:18.715Z,79.40
2018-04-13T19:51:46.911Z,70.00
2018-04-13T19:54:14.399Z,66.77
2018-04-13T19:56:41.859Z,68.60
2018-04-13T19:59:09.312Z,74.83
2018-04-13T20:01:37.531Z,75.50
2018-04-13T20:04:04.990Z,74.10
2018-04-13T20:06:32.428Z,73.23
2018-04-13T20:08:59.907Z,72.90
2018-04-13T20:11:27.352Z,71.43
2018-04-13T20:13:54.793Z,72.77
2018-04-13T20:16:22.271Z,72.63
2018-04-13T20:18:49.732Z,69.63
2018-04-13T20:21:17.177Z,73.23
2018-04-13T20:23:44.642Z,74.77
2018-04-13T20:26:12.074Z,75.83
2018-04-13T20:28:39.503Z,69.53
2018-04-13T20:31:07.750Z,77.77
2018-04-13T20:33:35.175Z,77.70
2018-04-13T20:36:02.663Z,73.30
2018-04-13T20:38:30.111Z,74.50
2018-04-13T20:40:57.546Z,73.23
2018-04-13T20:43:25.038Z,69.40
2018-04-13T20:45:52.478Z,74.47
2018-04-13T20:48:20.027Z,78.20
2018-04-13T20:50:47.498Z,78.43
2018-04-13T20:53:14.942Z,76.70
2018-04-13T20:55:42.391Z,69.27
2018-04-13T20:58:09.815Z,88.97
2018-04-13T21:00:38.166Z,83.70
2018-04-13T21:03:05.583Z,89.43
2018-04-13T21:05:33.048Z,81.47
2018-04-13T21:08:00.499Z,83.10
2018-04-13T21:10:27.919Z,82.17
2018-04-13T21:12:56.132Z,84.93
2018-04-13T21:15:23.613Z,82.57
2018-04-13T21:17:51.047Z,78.03
2018-04-13T21:20:18.487Z,94.97
2018-04-13T21:22:45.915Z,87.53
2018-04-13T21:25:14.151Z,86.63
2018-04-13T21:27:41.595Z,94.47
2018-04-13T21:30:09.050Z,85.03
2018-04-13T21:32:36.480Z,84.80
2018-04-13T21:35:03.949Z,89.67
2018-04-13T21:37:31.436Z,84.83
2018-04-13T21:39:58.892Z,85.67
2018-04-13T21:42:26.347Z,89.47
2018-04-13T21:44:53.824Z,92.07
2018-04-13T21:47:21.264Z,94.03
2018-04-13T21:49:48.708Z,88.77
2018-04-13T21:52:16.188Z,93.83
2018-04-13T21:54:43.634Z,86.90
2018-04-13T21:57:11.073Z,85.27
2018-04-13T21:59:38.519Z,84.60
2018-04-13T22:02:05.955Z,93.07
2018-04-13T22:04:34.163Z,100.17
2018-04-13T22:07:01.611Z,90.83
2018-04-13T22:09:29.091Z,88.73
2018-04-13T22:11:56.547Z,99.10
2018-04-13T22:14:35.883Z,84.47
2018-04-13T22:17:03.339Z,91.87
2018-04-13T22:19:30.767Z,92.73
2018-04-13T22:21:58.219Z,87.23
2018-04-13T22:24:26.415Z,87.53
2018-04-13T22:26:53.873Z,92.80
2018-04-13T22:29:21.295Z,93.67
2018-04-13T22:31:49.531Z,84.53
2018-04-13T22:34:16.977Z,86.90
2018-04-13T22:36:44.440Z,95.10
2018-04-13T22:39:11.880Z,95.23
2018-04-13T22:41:39.312Z,90.43
2018-04-13T22:44:06.835Z,93.47
2018-04-13T22:46:34.276Z,92.57
2018-04-13T22:49:01.829Z,90.83
2018-04-13T22:51:29.276Z,85.73
2018-04-13T22:54:04.559Z,89.77
2018-04-13T22:56:31.995Z,94.23
2018-04-13T22:58:59.444Z,93.43
2018-04-13T23:01:26.875Z,92.60
2018-04-13T23:03:54.311Z,92.40
2018-04-13T23:06:22.508Z,87.77
2018-04-13T23:08:49.951Z,81.20
2018-04-13T23:11:17.387Z,81.73
2018-04-13T23:13:45.591Z,77.67
2018-04-13T23:16:13.072Z,88.77
2018-04-13T23:18:40.523Z,88.63
2018-04-13T23:21:08.090Z,84.37
2018-04-13T23:23:35.527Z,83.83
2018-04-13T23:26:07.307Z,81.77
2018-04-13T23:28:34.778Z,87.90
2018-04-13T23:31:02.223Z,91.80
2018-04-13T23:33:29.686Z,92.27
2018-04-13T23:35:57.172Z,88.97
2018-04-13T23:38:24.665Z,87.20
2018-04-13T23:40:52.087Z,89.70
2018-04-13T23:43:20.327Z,93.80
2018-04-13T23:46:00.695Z,89.60
2018-04-13T23:48:28.144Z,91.60
2018-04-13T23:50:55.602Z,86.80
2018-04-13T23:53:29.727Z,83.93
2018-04-13T23:55:57.214Z,88.33
2018-04-13T23:58:24.655Z,83.20
